createdAt,value
2022-12-25T00:01:38.361Z,98030.06
2022-12-25T00:04:08.337Z,98031.59
2022-12-25T00:06:37.757Z,98030.47
2022-12-25T00:09:06.254Z,98028.84
2022-12-25T00:11:34.813Z,98028.34
2022-12-25T00:14:03.392Z,98025.25
2022-12-25T00:16:32.036Z,98018.91
2022-12-25T00:19:01.275Z,98013.59
2022-12-25T00:21:31.824Z,98016.63
2022-12-25T00:24:01.681Z,98008.91
2022-12-25T00:26:31.215Z,98019.03
2022-12-25T00:29:00.042Z,98014.50
2022-12-25T00:31:28.715Z,98016.63
2022-12-25T00:33:57.359Z,98008.47
2022-12-25T00:36:26.182Z,98004.06
2022-12-25T00:38:56.048Z,98003.25
2022-12-25T00:41:39.797Z,98009.50
2022-12-25T00:44:09.796Z,98005.78
2022-12-25T00:46:38.724Z,98006.59
2022-12-25T00:49:08.100Z,98006.06
2022-12-25T00:51:36.616Z,98011.59
2022-12-25T00:54:06.622Z,98011.19
2022-12-25T00:56:35.512Z,98008.47
2022-12-25T00:59:04.456Z,98014.81
2022-12-25T01:01:33.544Z,98013.50
2022-12-25T01:04:02.512Z,98008.38
2022-12-25T01:06:31.391Z,98016.41
2022-12-25T01:09:18.136Z,98013.91
2022-12-25T01:11:48.066Z,98008.59
2022-12-25T01:14:16.759Z,98021.06
2022-12-25T01:16:45.381Z,98020.66
2022-12-25T01:19:14.033Z,98024.03
2022-12-25T01:21:42.631Z,98034.28
2022-12-25T01:24:11.246Z,98038.22
2022-12-25T01:26:39.808Z,98047.47
2022-12-25T01:29:09.660Z,98044.25
2022-12-25T01:31:38.257Z,98044.66
2022-12-25T01:34:07.238Z,98050.38
2022-12-25T01:36:35.740Z,98049.66
2022-12-25T01:39:05.311Z,98048.66
2022-12-25T01:41:33.832Z,98048.53
2022-12-25T01:44:06.687Z,98045.84
2022-12-25T01:46:37.427Z,98042.22
2022-12-25T01:49:12.760Z,98056.06
2022-12-25T01:51:47.402Z,98040.22
2022-12-25T01:54:21.501Z,98036.00
2022-12-25T01:56:54.580Z,98039.22
2022-12-25T01:59:25.660Z,98028.88
2022-12-25T02:01:55.770Z,98033.28
2022-12-25T02:04:38.775Z,98037.13
2022-12-25T02:07:14.219Z,98045.16
2022-12-25T02:09:44.400Z,98040.53
2022-12-25T02:12:20.284Z,98039.53
2022-12-25T02:14:51.312Z,98038.13
2022-12-25T02:17:32.475Z,98034.81
2022-12-25T02:21:04.298Z,98033.31
2022-12-25T02:24:17.317Z,98035.63
2022-12-25T02:27:32.546Z,98037.91
2022-12-25T02:30:08.159Z,98034.50
2022-12-25T02:32:46.383Z,98034.59
2022-12-25T02:35:20.749Z,98032.19
2022-12-25T02:37:57.599Z,98048.63
2022-12-25T02:40:32.941Z,98039.72
2022-12-25T02:43:25.826Z,98033.88
2022-12-25T02:46:18.969Z,98039.22
2022-12-25T02:49:12.009Z,98038.31
2022-12-25T02:52:06.433Z,98033.88
2022-12-25T02:55:00.711Z,98036.50
2022-12-25T02:57:53.859Z,98030.38
2022-12-25T03:00:40.045Z,98035.41
2022-12-25T03:03:33.151Z,98025.69
2022-12-25T03:06:22.841Z,98029.78
2022-12-25T03:09:18.729Z,98030.88
2022-12-25T03:11:54.560Z,98023.97
2022-12-25T03:14:41.229Z,98028.00
2022-12-25T03:17:10.106Z,98026.66
2022-12-25T03:19:57.517Z,98020.78
2022-12-25T03:22:47.698Z,98008.59
2022-12-25T03:25:35.309Z,98010.81
2022-12-25T03:28:06.474Z,98017.34
2022-12-25T03:31:02.450Z,98012.53
2022-12-25T03:34:09.056Z,98017.44
2022-12-25T03:36:56.583Z,98011.78
2022-12-25T03:39:54.378Z,98014.81
2022-12-25T03:42:52.062Z,98013.94
2022-12-25T03:45:57.654Z,98004.28
2022-12-25T03:48:48.881Z,98006.38
2022-12-25T03:51:42.068Z,98015.25
2022-12-25T03:54:32.948Z,98009.28
2022-12-25T03:57:19.952Z,98021.00
2022-12-25T04:00:06.488Z,98018.44
2022-12-25T04:02:56.517Z,98005.28
2022-12-25T04:05:42.815Z,98008.94
2022-12-25T04:08:29.030Z,98006.69
2022-12-25T04:11:16.631Z,98000.00
2022-12-25T04:14:02.647Z,98009.75
2022-12-25T04:16:48.922Z,98004.84
2022-12-25T04:19:35.146Z,97999.88
2022-12-25T04:22:21.207Z,98000.59
2022-12-25T04:25:07.488Z,97991.91
2022-12-25T04:27:54.680Z,97991.69
2022-12-25T04:30:40.655Z,97993.94
2022-12-25T04:33:26.829Z,97990.22
2022-12-25T04:36:10.497Z,97981.31
2022-12-25T04:38:40.642Z,97993.22
2022-12-25T04:41:14.544Z,97991.34
2022-12-25T04:43:44.454Z,98005.06
2022-12-25T04:46:13.115Z,97997.81
2022-12-25T04:48:41.720Z,97993.44
2022-12-25T04:51:17.403Z,97999.94
2022-12-25T04:53:47.250Z,98001.75
2022-12-25T04:56:17.060Z,98003.44
2022-12-25T04:58:47.791Z,97999.88
2022-12-25T05:01:17.213Z,97999.94
2022-12-25T05:03:45.840Z,98003.38
2022-12-25T05:06:14.451Z,97999.38
2022-12-25T05:08:43.260Z,97998.25
2022-12-25T05:11:14.944Z,97997.69
2022-12-25T05:13:44.366Z,97999.44
2022-12-25T05:16:18.040Z,97994.03
2022-12-25T05:18:49.401Z,98002.34
2022-12-25T05:21:18.972Z,97989.34
2022-12-25T05:23:51.084Z,97999.56
2022-12-25T05:26:22.284Z,97998.50
2022-12-25T05:28:51.696Z,97999.72
2022-12-25T05:31:23.004Z,97995.91
2022-12-25T05:33:52.584Z,97993.19
2022-12-25T05:36:21.446Z,97998.84
2022-12-25T05:38:50.051Z,97990.44
2022-12-25T05:41:18.689Z,98001.47
2022-12-25T05:43:47.296Z,97998.38
2022-12-25T05:46:16.043Z,98006.50
2022-12-25T05:48:46.353Z,98000.88
2022-12-25T05:51:16.291Z,98002.91
2022-12-25T05:53:45.146Z,98001.38
2022-12-25T05:56:13.806Z,98000.88
2022-12-25T05:58:42.658Z,97994.78
2022-12-25T06:01:17.048Z,97992.91
2022-12-25T06:03:47.113Z,97990.06
2022-12-25T06:06:16.164Z,97991.34
2022-12-25T06:08:45.220Z,97992.53
2022-12-25T06:11:15.936Z,98000.34
2022-12-25T06:13:44.978Z,98006.66
2022-12-25T06:16:14.041Z,98017.63
2022-12-25T06:18:47.947Z,98013.94
2022-12-25T06:25:23.650Z,98014.56
2022-12-25T06:27:52.159Z,98016.28
2022-12-25T06:30:21.096Z,98011.78
2022-12-25T06:32:49.634Z,98006.09
2022-12-25T06:35:19.705Z,98011.72
2022-12-25T06:37:48.256Z,98009.78
2022-12-25T06:40:17.397Z,98008.41
2022-12-25T06:42:45.946Z,98000.56
2022-12-25T06:45:14.594Z,98003.88
2022-12-25T06:47:43.160Z,98007.59
2022-12-25T06:50:11.934Z,98008.63
2022-12-25T06:52:41.870Z,98013.19
2022-12-25T06:59:36.944Z,98012.16
2022-12-25T07:02:05.910Z,98018.50
2022-12-25T07:04:40.921Z,98019.75
2022-12-25T07:07:10.864Z,98018.72
2022-12-25T07:09:42.612Z,98018.03
2022-12-25T07:12:18.917Z,98023.66
2022-12-25T07:14:50.200Z,98023.44
2022-12-25T07:17:20.233Z,98033.00
2022-12-25T07:19:48.937Z,98033.59
2022-12-25T07:22:18.223Z,98025.75
2022-12-25T07:24:48.145Z,98021.38
2022-12-25T07:27:16.674Z,98019.66
2022-12-25T07:29:45.239Z,98017.94
2022-12-25T07:32:13.944Z,98023.88
2022-12-25T07:34:42.486Z,98030.19
2022-12-25T07:37:11.447Z,98026.38
2022-12-25T07:39:40.721Z,98027.19
2022-12-25T07:42:10.827Z,98026.38
2022-12-25T07:44:39.640Z,98026.66
2022-12-25T07:47:08.267Z,98029.28
2022-12-25T07:49:37.652Z,98032.00
2022-12-25T07:52:06.530Z,98032.72
2022-12-25T07:54:35.124Z,98029.59
2022-12-25T07:57:03.667Z,98036.63
2022-12-25T07:59:33.698Z,98034.63
2022-12-25T08:02:02.432Z,98032.91
2022-12-25T08:04:31.304Z,98027.91
2022-12-25T08:07:00.022Z,98023.47
2022-12-25T08:09:28.837Z,98026.56
2022-12-25T08:11:57.532Z,98030.69
2022-12-25T08:14:26.135Z,98022.34
2022-12-25T08:16:56.207Z,98029.28
2022-12-25T08:19:24.946Z,98036.22
2022-12-25T08:21:53.509Z,98029.06
2022-12-25T08:24:22.602Z,98027.03
2022-12-25T08:26:51.235Z,98029.44
2022-12-25T08:29:19.975Z,98015.81
2022-12-25T08:31:48.616Z,98023.22
2022-12-25T08:34:19.352Z,98035.25
2022-12-25T08:36:48.921Z,98022.41
2022-12-25T08:39:17.565Z,98031.13
2022-12-25T08:41:46.627Z,98022.03
2022-12-25T08:44:15.451Z,98021.59
2022-12-25T08:46:44.197Z,98021.25
2022-12-25T08:49:13.034Z,98019.16
2022-12-25T08:51:45.508Z,98005.59
2022-12-25T08:54:14.109Z,97999.97
2022-12-25T08:56:42.633Z,98002.25
2022-12-25T08:59:11.834Z,97992.25
2022-12-25T09:01:40.592Z,97989.53
2022-12-25T09:04:09.436Z,97991.69
2022-12-25T09:06:37.946Z,97985.22
2022-12-25T09:09:08.057Z,97975.09
2022-12-25T09:11:36.958Z,97978.88
2022-12-25T09:14:05.975Z,97977.25
2022-12-25T09:16:34.726Z,97976.94
2022-12-25T09:19:03.957Z,97967.13
2022-12-25T09:21:32.883Z,97977.75
2022-12-25T09:24:01.504Z,97984.28
2022-12-25T09:26:31.502Z,98000.72
2022-12-25T09:29:00.174Z,98006.63
2022-12-25T09:31:28.998Z,98007.03
2022-12-25T09:33:59.453Z,97991.50
2022-12-25T09:36:28.819Z,97990.19
2022-12-25T09:38:57.515Z,97989.72
2022-12-25T09:41:35.333Z,97993.69
2022-12-25T09:44:10.992Z,97989.72
2022-12-25T09:46:46.054Z,97976.84
2022-12-25T09:49:24.962Z,97971.78
2022-12-25T09:52:04.261Z,97979.66
2022-12-25T09:54:45.900Z,97991.28
2022-12-25T09:57:16.579Z,97985.13
2022-12-25T09:59:47.609Z,97982.59
2022-12-25T10:02:43.743Z,97983.63
2022-12-25T10:05:53.257Z,97982.28
2022-12-25T10:08:40.771Z,97976.94
2022-12-25T10:11:27.830Z,97965.00
2022-12-25T10:14:22.000Z,97964.91
2022-12-25T10:17:07.588Z,97966.22
2022-12-25T10:19:47.881Z,97973.75
2022-12-25T10:22:27.803Z,97969.09
2022-12-25T10:25:02.033Z,97960.81
2022-12-25T10:27:35.733Z,97963.22
2022-12-25T10:30:15.926Z,97966.44
2022-12-25T10:32:46.498Z,97954.75
2022-12-25T10:35:19.289Z,97952.19
2022-12-25T10:37:56.176Z,97944.03
2022-12-25T10:40:41.605Z,97937.78
2022-12-25T10:43:17.853Z,97931.69
2022-12-25T10:45:50.813Z,97930.72
2022-12-25T10:48:27.555Z,97914.25
2022-12-25T10:50:57.646Z,97912.03
2022-12-25T10:53:30.162Z,97911.66
2022-12-25T10:56:01.836Z,97903.50
2022-12-25T10:58:32.393Z,97891.84
2022-12-25T11:01:07.061Z,97886.88
2022-12-25T11:03:39.188Z,97884.31
2022-12-25T11:06:24.523Z,97877.13
2022-12-25T11:08:57.565Z,97870.72
2022-12-25T11:11:28.359Z,97870.75
2022-12-25T11:14:01.402Z,97856.34
2022-12-25T11:16:37.817Z,97848.66
2022-12-25T11:19:29.782Z,97854.56
2022-12-25T11:22:02.112Z,97843.53
2022-12-25T11:24:33.107Z,97839.53
2022-12-25T11:27:07.163Z,97846.41
2022-12-25T11:29:47.347Z,97847.84
2022-12-25T11:32:23.650Z,97854.88
2022-12-25T11:34:54.471Z,97850.69
2022-12-25T11:37:32.500Z,97851.16
2022-12-25T11:40:01.703Z,97846.84
2022-12-25T11:42:36.254Z,97847.78
2022-12-25T11:45:13.398Z,97844.66
2022-12-25T11:47:50.582Z,97849.19
2022-12-25T11:50:28.905Z,97851.75
2022-12-25T11:53:01.851Z,97849.88
2022-12-25T11:55:41.160Z,97845.03
2022-12-25T11:58:19.502Z,97836.41
2022-12-25T12:00:53.509Z,97838.28
2022-12-25T12:03:29.049Z,97828.88
2022-12-25T12:06:04.239Z,97824.94
2022-12-25T12:08:35.555Z,97824.97
2022-12-25T12:11:17.994Z,97808.22
2022-12-25T12:14:18.869Z,97819.34
2022-12-25T12:16:47.837Z,97807.38
2022-12-25T12:19:29.653Z,97815.41
2022-12-25T12:22:01.863Z,97819.00
2022-12-25T12:24:39.338Z,97812.41
2022-12-25T12:27:23.788Z,97808.22
2022-12-25T12:29:57.266Z,97811.88
2022-12-25T12:32:44.592Z,97808.41
2022-12-25T12:35:24.049Z,97810.53
2022-12-25T12:37:57.428Z,97804.75
2022-12-25T12:40:34.631Z,97799.50
2022-12-25T12:43:04.867Z,97794.47
2022-12-25T12:45:38.671Z,97799.72
2022-12-25T12:48:18.353Z,97800.09
2022-12-25T12:50:48.371Z,97784.91
2022-12-25T12:53:31.624Z,97797.00
2022-12-25T12:56:21.424Z,97794.84
2022-12-25T12:58:51.745Z,97781.81
2022-12-25T13:01:46.416Z,97776.03
2022-12-25T13:04:55.738Z,97761.97
2022-12-25T13:07:49.293Z,97762.63
2022-12-25T13:10:33.287Z,97746.44
2022-12-25T13:13:08.035Z,97741.56
2022-12-25T13:15:38.560Z,97738.91
2022-12-25T13:18:15.387Z,97735.97
2022-12-25T13:20:55.010Z,97742.78
2022-12-25T13:23:30.751Z,97747.13
2022-12-25T13:26:02.273Z,97746.47
2022-12-25T13:28:33.844Z,97747.28
2022-12-25T13:31:12.421Z,97741.16
2022-12-25T13:33:42.372Z,97742.84
2022-12-25T13:36:14.915Z,97744.84
2022-12-25T13:38:51.021Z,97749.41
2022-12-25T13:41:40.291Z,97749.97
2022-12-25T13:44:20.674Z,97745.91
2022-12-25T13:46:49.456Z,97757.47
2022-12-25T13:49:21.865Z,97756.19
2022-12-25T13:51:51.927Z,97746.09
2022-12-25T13:54:22.032Z,97729.88
2022-12-25T13:56:54.899Z,97721.19
2022-12-25T13:59:26.900Z,97714.44
2022-12-25T14:01:57.731Z,97724.78
2022-12-25T14:04:26.695Z,97716.31
2022-12-25T14:06:55.431Z,97717.63
2022-12-25T14:09:25.790Z,97722.00
2022-12-25T14:11:54.958Z,97728.84
2022-12-25T14:14:26.893Z,97721.38
2022-12-25T14:16:59.648Z,97735.81
2022-12-25T14:19:31.098Z,97738.72
2022-12-25T14:22:06.009Z,97738.44
2022-12-25T14:24:36.374Z,97735.72
2022-12-25T14:27:08.752Z,97734.44
2022-12-25T14:29:44.427Z,97739.38
2022-12-25T14:32:18.444Z,97732.03
2022-12-25T14:34:51.770Z,97727.41
2022-12-25T14:37:26.416Z,97722.44
2022-12-25T14:40:03.144Z,97735.56
2022-12-25T14:42:36.079Z,97736.03
2022-12-25T14:45:25.827Z,97741.94
2022-12-25T14:47:58.051Z,97739.72
2022-12-25T14:50:30.490Z,97732.19
2022-12-25T14:53:01.096Z,97731.44
2022-12-25T14:55:31.906Z,97729.06
2022-12-25T14:58:04.560Z,97725.09
2022-12-25T15:00:38.065Z,97727.88
2022-12-25T15:03:19.624Z,97729.34
2022-12-25T15:06:01.214Z,97736.69
2022-12-25T15:08:32.777Z,97738.47
2022-12-25T15:11:03.715Z,97738.94
2022-12-25T15:13:34.189Z,97745.34
2022-12-25T15:16:10.362Z,97740.72
2022-12-25T15:18:43.377Z,97745.69
2022-12-25T15:21:18.369Z,97746.31
2022-12-25T15:23:47.737Z,97748.22
2022-12-25T15:26:17.812Z,97743.06
2022-12-25T15:28:46.598Z,97743.88
2022-12-25T15:31:23.465Z,97739.09
2022-12-25T15:33:52.895Z,97724.72
2022-12-25T15:36:22.211Z,97718.31
2022-12-25T15:38:51.395Z,97712.97
2022-12-25T15:41:45.079Z,97714.31
2022-12-25T15:44:15.287Z,97716.25
2022-12-25T15:46:45.901Z,97717.84
2022-12-25T15:49:16.286Z,97720.38
2022-12-25T15:51:46.198Z,97718.16
2022-12-25T15:54:14.841Z,97713.50
2022-12-25T15:56:49.903Z,97711.06
2022-12-25T15:59:25.401Z,97697.47
2022-12-25T16:01:58.133Z,97701.59
2022-12-25T16:04:31.385Z,97706.59
2022-12-25T16:07:01.347Z,97705.13
2022-12-25T16:09:29.971Z,97707.56
2022-12-25T16:11:59.899Z,97694.94
2022-12-25T16:14:28.466Z,97700.03
2022-12-25T16:16:57.062Z,97694.28
2022-12-25T16:19:25.767Z,97696.56
2022-12-25T16:21:54.488Z,97700.59
2022-12-25T16:24:24.163Z,97700.75
2022-12-25T16:26:52.804Z,97705.34
2022-12-25T16:29:22.956Z,97719.53
2022-12-25T16:31:51.702Z,97719.53
2022-12-25T16:34:20.413Z,97724.38
2022-12-25T16:36:49.198Z,97717.47
2022-12-25T16:39:18.048Z,97705.63
2022-12-25T16:41:46.775Z,97714.56
2022-12-25T16:44:15.437Z,97715.69
2022-12-25T16:46:45.658Z,97707.56
2022-12-25T16:49:14.331Z,97707.56
2022-12-25T16:51:42.985Z,97702.13
2022-12-25T16:54:11.516Z,97709.00
2022-12-25T16:56:41.536Z,97704.69
2022-12-25T16:59:10.948Z,97704.06
2022-12-25T17:01:43.347Z,97702.91
2022-12-25T17:04:14.208Z,97697.66
2022-12-25T17:06:43.013Z,97701.78
2022-12-25T17:09:12.059Z,97711.03
2022-12-25T17:11:41.165Z,97704.63
2022-12-25T17:14:11.978Z,97703.03
2022-12-25T17:16:41.075Z,97702.03
2022-12-25T17:19:20.229Z,97710.66
2022-12-25T17:21:49.396Z,97711.94
2022-12-25T17:24:19.187Z,97703.66
2022-12-25T17:26:48.726Z,97704.47
2022-12-25T17:29:21.964Z,97692.44
2022-12-25T17:31:51.536Z,97679.19
2022-12-25T17:34:21.722Z,97672.97
2022-12-25T17:36:50.280Z,97679.38
2022-12-25T17:39:18.962Z,97678.59
2022-12-25T17:41:49.629Z,97673.78
2022-12-25T17:44:18.349Z,97676.81
2022-12-25T17:46:46.922Z,97675.69
2022-12-25T17:49:18.080Z,97678.56
2022-12-25T17:51:48.746Z,97693.25
2022-12-25T17:54:17.472Z,97686.34
2022-12-25T17:56:46.620Z,97688.91
2022-12-25T17:59:18.634Z,97687.84
2022-12-25T18:01:49.150Z,97684.94
2022-12-25T18:04:18.342Z,97695.78
2022-12-25T18:06:49.034Z,97696.25
2022-12-25T18:09:18.917Z,97692.44
2022-12-25T18:11:48.599Z,97689.72
2022-12-25T18:14:18.259Z,97685.72
2022-12-25T18:16:48.788Z,97687.97
2022-12-25T18:19:18.492Z,97693.84
2022-12-25T18:21:48.671Z,97688.25
2022-12-25T18:24:17.618Z,97693.31
2022-12-25T18:26:47.043Z,97688.50
2022-12-25T18:29:16.484Z,97695.19
2022-12-25T18:31:45.490Z,97701.75
2022-12-25T18:34:14.187Z,97706.78
2022-12-25T18:36:43.156Z,97697.91
2022-12-25T18:39:14.489Z,97702.81
2022-12-25T18:41:57.149Z,97705.69
2022-12-25T18:44:25.722Z,97706.66
2022-12-25T18:46:55.754Z,97707.16
2022-12-25T18:49:24.638Z,97695.50
2022-12-25T18:51:53.542Z,97692.59
2022-12-25T18:54:46.394Z,97686.34
2022-12-25T18:57:15.662Z,97686.84
2022-12-25T18:59:44.752Z,97681.13
2022-12-25T19:02:15.306Z,97685.22
2022-12-25T19:04:44.773Z,97678.66
2022-12-25T19:07:14.162Z,97677.00
2022-12-25T19:09:44.594Z,97673.44
2022-12-25T19:12:13.425Z,97673.31
2022-12-25T19:14:47.446Z,97663.47
2022-12-25T19:17:31.185Z,97661.38
2022-12-25T19:20:02.179Z,97665.31
2022-12-25T19:22:32.403Z,97664.63
2022-12-25T19:25:03.307Z,97665.13
2022-12-25T19:27:32.180Z,97677.25
2022-12-25T19:30:00.861Z,97678.47
2022-12-25T19:32:29.603Z,97684.91
2022-12-25T19:35:04.430Z,97671.81
2022-12-25T19:37:33.252Z,97693.13
2022-12-25T19:40:04.245Z,97702.53
2022-12-25T19:42:33.389Z,97699.84
2022-12-25T19:45:03.124Z,97707.28
2022-12-25T19:47:31.909Z,97703.59
2022-12-25T19:50:03.159Z,97704.09
2022-12-25T19:52:32.314Z,97691.16
2022-12-25T19:55:02.577Z,97703.47
2022-12-25T19:57:31.313Z,97687.41
2022-12-25T19:59:59.933Z,97684.63
2022-12-25T20:02:29.070Z,97689.75
2022-12-25T20:04:57.887Z,97689.31
2022-12-25T20:07:26.820Z,97691.28
2022-12-25T20:09:55.564Z,97669.44
2022-12-25T20:12:26.272Z,97678.16
2022-12-25T20:14:55.186Z,97662.59
2022-12-25T20:17:23.834Z,97665.94
2022-12-25T20:19:52.659Z,97653.06
2022-12-25T20:22:21.937Z,97655.09
2022-12-25T20:24:50.746Z,97658.25
2022-12-25T20:27:19.459Z,97658.44
2022-12-25T20:29:49.531Z,97661.25
2022-12-25T20:32:18.121Z,97666.84
2022-12-25T20:34:46.643Z,97666.84
2022-12-25T20:37:15.269Z,97669.06
2022-12-25T20:39:43.799Z,97668.81
2022-12-25T20:42:12.677Z,97671.31
2022-12-25T20:44:41.461Z,97665.91
2022-12-25T20:47:11.448Z,97662.41
2022-12-25T20:49:40.157Z,97670.13
2022-12-25T20:52:09.044Z,97675.34
2022-12-25T20:54:38.200Z,97672.44
2022-12-25T20:57:08.750Z,97666.06
2022-12-25T20:59:38.059Z,97666.41
2022-12-25T21:02:07.015Z,97672.94
2022-12-25T21:04:37.272Z,97679.94
2022-12-25T21:07:06.331Z,97675.97
2022-12-25T21:09:35.200Z,97679.75
2022-12-25T21:12:03.975Z,97682.84
2022-12-25T21:14:33.050Z,97687.56
2022-12-25T21:17:01.737Z,97687.72
2022-12-25T21:19:30.455Z,97692.09
2022-12-25T21:22:00.338Z,97702.41
2022-12-25T21:24:28.970Z,97689.31
2022-12-25T21:26:57.571Z,97684.50
2022-12-25T21:29:26.155Z,97698.44
2022-12-25T21:32:12.943Z,97687.72
2022-12-25T21:34:41.631Z,97689.44
2022-12-25T21:37:11.803Z,97697.16
2022-12-25T21:39:40.651Z,97715.09
2022-12-25T21:42:09.172Z,97726.53
2022-12-25T21:44:38.027Z,97720.91
2022-12-25T21:47:06.568Z,97741.75
2022-12-25T21:49:52.911Z,97731.53
2022-12-25T21:52:23.437Z,97737.59
2022-12-25T21:54:53.725Z,97736.56
2022-12-25T21:57:22.419Z,97749.19
2022-12-25T21:59:50.991Z,97751.81
2022-12-25T22:02:19.792Z,97761.03
2022-12-25T22:04:48.578Z,97765.34
2022-12-25T22:07:19.122Z,97767.34
2022-12-25T22:09:52.212Z,97755.84
2022-12-25T22:12:40.503Z,97776.28
2022-12-25T22:15:11.340Z,97757.72
2022-12-25T22:17:59.478Z,97769.75
2022-12-25T22:20:31.433Z,97768.66
2022-12-25T22:23:00.157Z,97765.06
2022-12-25T22:25:30.265Z,97767.75
2022-12-25T22:27:59.379Z,97772.97
2022-12-25T22:30:30.738Z,97762.25
2022-12-25T22:32:59.977Z,97749.72
2022-12-25T22:35:28.471Z,97736.38
2022-12-25T22:37:57.071Z,97739.78
2022-12-25T22:40:25.621Z,97740.41
2022-12-25T22:42:57.440Z,97748.50
2022-12-25T22:45:26.504Z,97761.25
2022-12-25T22:47:55.277Z,97758.34
2022-12-25T22:50:24.427Z,97772.69
2022-12-25T22:52:53.946Z,97769.03
2022-12-25T22:55:22.649Z,97765.13
2022-12-25T22:57:52.116Z,97765.75
2022-12-25T23:00:22.479Z,97771.03
2022-12-25T23:02:51.361Z,97765.09
2022-12-25T23:05:20.230Z,97766.31
2022-12-25T23:07:48.815Z,97757.28
2022-12-25T23:10:17.471Z,97761.59
2022-12-25T23:13:03.354Z,97766.69
2022-12-25T23:15:33.841Z,97763.78
2022-12-25T23:18:20.178Z,97766.28
2022-12-25T23:21:08.268Z,97773.06
2022-12-25T23:23:54.390Z,97775.25
2022-12-25T23:26:23.342Z,97775.88
2022-12-25T23:29:09.443Z,97782.06
2022-12-25T23:31:42.817Z,97789.75
2022-12-25T23:34:12.317Z,97786.19
2022-12-25T23:36:40.821Z,97788.00
2022-12-25T23:39:10.616Z,97792.72
2022-12-25T23:41:40.088Z,97795.81
2022-12-25T23:44:09.239Z,97791.06
2022-12-25T23:46:40.770Z,97795.28
2022-12-25T23:49:10.798Z,97788.56
2022-12-25T23:51:44.061Z,97779.34
2022-12-25T23:54:15.532Z,97784.22
2022-12-25T23:56:45.054Z,97794.53
2022-12-25T23:59:15.412Z,97801.13
